createdAt,value
2019-04-14T00:03:26.883Z,2.196655
2019-04-14T00:08:50.161Z,2.287292
2019-04-14T00:14:12.347Z,2.327576
2019-04-14T00:19:35.089Z,2.398071
2019-04-14T00:24:57.850Z,2.408142
2019-04-14T00:30:21.138Z,2.37793
2019-04-14T00:35:44.857Z,2.327576
2019-04-14T00:41:07.164Z,2.317505
2019-04-14T00:46:31.292Z,2.297363
2019-04-14T00:51:53.058Z,2.327576
2019-04-14T00:57:15.925Z,2.398071
2019-04-14T01:02:38.763Z,2.327576
2019-04-14T01:08:01.597Z,2.317505
2019-04-14T01:13:24.606Z,2.317505
2019-04-14T01:18:47.316Z,2.267151
2019-04-14T01:24:09.912Z,2.247009
2019-04-14T01:29:32.687Z,2.247009
2019-04-14T01:34:55.958Z,2.267151
2019-04-14T01:40:18.492Z,2.297363
2019-04-14T01:45:40.799Z,2.196655
2019-04-14T01:51:04.845Z,2.146301
2019-04-14T01:56:27.357Z,2.065735
2019-04-14T02:01:49.976Z,2.13623
2019-04-14T02:07:12.534Z,2.116089
2019-04-14T02:12:36.407Z,2.065735
2019-04-14T02:17:59.121Z,2.035522
2019-04-14T02:23:21.844Z,1.995239
2019-04-14T02:28:44.593Z,1.995239
2019-04-14T02:45:26.083Z,1.904602
2019-04-14T02:50:47.463Z,1.683044
2019-04-14T02:56:15.418Z,1.713257
2019-04-14T03:06:53.916Z,1.542053
2019-04-14T03:12:24.282Z,1.531982
2019-04-14T03:17:46.819Z,1.471558
2019-04-14T03:23:16.889Z,1.461487
2019-04-14T03:39:23.091Z,1.310425
2019-04-14T03:44:55.974Z,1.360779
2019-04-14T03:50:05.705Z,1.25
2019-04-14T03:55:20.073Z,1.260071
2019-04-14T04:00:29.916Z,1.12915
2019-04-14T04:05:52.615Z,1.159363
2019-04-14T04:11:17.223Z,1.058655
2019-04-14T04:16:39.781Z,1.078796
2019-04-14T04:22:02.425Z,1.078796
2019-04-14T04:27:25.129Z,1.018372
2019-04-14T04:32:49.340Z,1.12915
2019-04-14T04:38:12.081Z,1.098938
2019-04-14T04:43:34.827Z,1.078796
2019-04-14T04:49:07.866Z,1.109009
2019-04-14T04:54:23.492Z,1.018372
2019-04-14T04:59:45.623Z,0.947876
2019-04-14T05:05:08.308Z,1.078796
2019-04-14T05:10:30.996Z,0.978088
2019-04-14T05:15:55.714Z,0.957947
2019-04-14T05:21:19.161Z,1.068726
2019-04-14T05:26:41.727Z,1.068726
2019-04-14T05:32:06.627Z,1.058655
2019-04-14T05:37:29.193Z,1.12915
2019-04-14T05:42:52.160Z,1.098938
2019-04-14T05:48:16.067Z,1.159363
2019-04-14T05:53:37.761Z,1.179504
2019-04-14T05:59:00.491Z,1.159363
2019-04-14T06:04:24.231Z,1.199646
2019-04-14T06:09:47.251Z,1.260071
2019-04-14T06:15:10.229Z,1.290283
2019-04-14T06:20:33.234Z,1.360779
2019-04-14T06:25:56.262Z,1.531982
2019-04-14T06:31:22.591Z,1.612549
2019-04-14T06:36:45.488Z,1.723328
2019-04-14T06:42:08.156Z,1.894531
2019-04-14T06:47:31.180Z,2.045593
2019-04-14T06:52:54.271Z,2.297363
2019-04-14T06:58:17.560Z,2.478638
2019-04-14T07:03:40.522Z,2.619629
2019-04-14T07:09:03.406Z,2.982178
2019-04-14T07:14:26.092Z,3.203735
2019-04-14T07:20:00.926Z,3.26416
2019-04-14T07:25:12.643Z,3.445435
2019-04-14T07:30:35.899Z,3.999329
2019-04-14T07:35:58.893Z,4.170532
2019-04-14T07:41:21.584Z,4.492798
2019-04-14T07:46:44.252Z,4.130249
2019-04-14T07:52:06.943Z,4.422302
2019-04-14T07:57:29.816Z,5.328674
2019-04-14T08:02:54.668Z,5.620728
2019-04-14T08:08:17.403Z,4.804993
2019-04-14T08:13:40.052Z,4.855347
2019-04-14T08:19:02.959Z,4.653931
2019-04-14T08:24:25.622Z,5.288391
2019-04-14T08:29:48.376Z,5.741577
2019-04-14T08:35:11.252Z,6.345825
2019-04-14T08:40:33.985Z,5.932922
2019-04-14T08:45:56.797Z,6.194763
2019-04-14T08:51:19.445Z,6.083984
2019-04-14T08:56:42.134Z,6.295471
2019-04-14T09:02:05.515Z,6.386108
2019-04-14T09:07:28.237Z,6.728516
2019-04-14T09:12:50.947Z,7.604675
2019-04-14T09:18:14.851Z,7.362976
2019-04-14T09:23:37.590Z,7.211914
2019-04-14T09:29:01.326Z,7.574463
2019-04-14T09:34:24.062Z,7.393188
2019-04-14T09:39:47.735Z,7.765808
2019-04-14T09:45:10.622Z,8.400269
2019-04-14T09:50:33.270Z,9.125366
2019-04-14T09:55:56.025Z,8.732605
2019-04-14T10:01:18.820Z,9.034729
2019-04-14T10:06:41.634Z,9.769897
2019-04-14T10:12:04.333Z,10.515137
2019-04-14T10:17:27.072Z,8.823242
2019-04-14T10:22:49.744Z,8.249207
2019-04-14T10:28:12.482Z,9.578552
2019-04-14T10:33:35.273Z,9.830322
2019-04-14T10:38:57.888Z,9.236145
2019-04-14T10:44:20.555Z,10.756836
2019-04-14T10:49:43.222Z,10.776978
2019-04-14T10:55:05.934Z,10.515137
2019-04-14T11:00:28.866Z,10.756836
2019-04-14T11:05:51.797Z,11.018677
2019-04-14T11:11:14.534Z,11.028748
2019-04-14T11:16:37.208Z,11.874695
2019-04-14T11:21:59.892Z,10.907898
2019-04-14T11:27:22.612Z,10.80719
2019-04-14T11:32:45.304Z,10.907898
2019-04-14T11:38:08.019Z,10.494995
2019-04-14T11:43:30.697Z,10.43457
2019-04-14T11:48:53.364Z,11.602783
2019-04-14T11:54:16.477Z,12.307739
2019-04-14T11:59:39.182Z,11.129456
2019-04-14T12:05:01.909Z,10.253296
2019-04-14T12:10:24.625Z,12.146606
2019-04-14T12:15:48.166Z,11.300659
2019-04-14T12:21:10.920Z,10.072021
2019-04-14T12:26:34.045Z,10.1828
2019-04-14T12:31:57.430Z,9.256287
2019-04-14T12:37:20.426Z,9.447632
2019-04-14T12:42:43.622Z,9.850464
2019-04-14T12:48:06.381Z,9.981384
2019-04-14T12:53:29.109Z,10.4245
2019-04-14T12:58:51.791Z,11.361084
2019-04-14T13:04:14.471Z,10.102234
2019-04-14T13:09:37.152Z,10.162659
2019-04-14T13:15:02.709Z,9.437561
2019-04-14T13:20:23.140Z,9.115295
2019-04-14T13:25:45.847Z,9.558411
2019-04-14T13:31:08.524Z,9.155579
2019-04-14T13:36:31.180Z,9.195862
2019-04-14T13:41:53.933Z,9.920959
2019-04-14T13:47:16.600Z,9.981384
2019-04-14T13:52:46.330Z,9.447632
2019-04-14T13:58:02.605Z,9.266357
2019-04-14T14:03:25.241Z,9.558411
2019-04-14T14:08:47.909Z,9.125366
2019-04-14T14:14:10.572Z,9.367065
2019-04-14T14:19:34.027Z,9.407349
2019-04-14T14:24:56.671Z,9.699402
2019-04-14T14:30:19.380Z,9.649048
2019-04-14T14:35:42.028Z,9.618835
2019-04-14T14:41:04.739Z,9.729614
2019-04-14T14:46:28.034Z,8.762817
2019-04-14T14:51:52.878Z,8.42041
2019-04-14T14:57:15.538Z,8.339844
2019-04-14T15:02:38.274Z,8.249207
2019-04-14T15:08:01.917Z,8.359985
2019-04-14T15:13:24.651Z,8.631897
2019-04-14T15:18:48.027Z,8.833313
2019-04-14T15:24:10.870Z,8.974304
2019-04-14T15:29:33.827Z,8.782959
2019-04-14T15:34:56.597Z,8.551331
2019-04-14T15:40:19.311Z,8.490906
2019-04-14T15:45:42.052Z,8.42041
2019-04-14T15:51:04.748Z,8.762817
2019-04-14T15:56:27.554Z,8.883667
2019-04-14T16:01:50.326Z,8.460693
2019-04-14T16:07:13.075Z,8.309631
2019-04-14T16:12:35.737Z,8.178711
2019-04-14T16:17:59.519Z,8.198853
2019-04-14T16:23:22.187Z,8.088074
2019-04-14T16:28:44.948Z,8.249207
2019-04-14T16:34:07.535Z,7.876587
2019-04-14T16:39:30.239Z,7.765808
2019-04-14T16:44:52.897Z,7.836304
2019-04-14T16:50:17.077Z,7.876587
2019-04-14T16:55:40.369Z,7.584534
2019-04-14T17:01:02.963Z,7.443542
2019-04-14T17:06:25.644Z,7.272339
2019-04-14T17:11:49.155Z,6.990356
2019-04-14T17:17:12.746Z,6.77887
2019-04-14T17:22:35.424Z,6.597595
2019-04-14T17:27:58.034Z,6.506958
2019-04-14T17:33:20.719Z,6.345825
2019-04-14T17:38:44.182Z,6.214905
2019-04-14T17:44:06.872Z,6.245117
2019-04-14T17:49:30.452Z,6.204834
2019-04-14T17:54:53.151Z,6.104126
2019-04-14T18:00:15.760Z,5.953064
2019-04-14T18:05:40.310Z,5.852356
2019-04-14T18:11:02.949Z,5.842285
2019-04-14T18:16:25.736Z,5.882568
2019-04-14T18:21:48.481Z,5.922852
2019-04-14T18:27:11.118Z,5.922852
2019-04-14T18:32:35.620Z,5.922852
2019-04-14T18:37:58.329Z,5.832214
2019-04-14T18:43:21.068Z,5.842285
2019-04-14T18:48:43.853Z,5.832214
2019-04-14T18:54:07.610Z,5.78186
2019-04-14T18:59:30.285Z,5.78186
2019-04-14T19:04:53.265Z,5.731506
2019-04-14T19:10:15.950Z,5.691223
2019-04-14T19:15:42.165Z,5.701294
2019-04-14T19:21:04.870Z,5.701294
2019-04-14T19:26:28.189Z,5.691223
2019-04-14T19:31:50.975Z,5.630798
2019-04-14T19:37:13.758Z,5.620728
2019-04-14T19:42:36.473Z,5.620728
2019-04-14T19:48:00.042Z,5.630798
2019-04-14T19:53:22.807Z,5.630798
2019-04-14T19:58:45.514Z,5.630798
2019-04-14T20:04:08.219Z,5.65094
2019-04-14T20:09:32.201Z,5.661011
2019-04-14T20:14:55.429Z,5.600586
2019-04-14T20:20:18.333Z,5.590515
2019-04-14T20:25:41.034Z,5.580444
2019-04-14T20:31:03.768Z,5.580444
2019-04-14T20:36:26.515Z,5.600586
2019-04-14T20:41:49.257Z,5.580444
2019-04-14T20:47:12.059Z,5.580444
2019-04-14T20:52:34.805Z,5.600586
2019-04-14T20:57:57.586Z,5.580444
2019-04-14T21:03:20.273Z,5.580444
2019-04-14T21:08:42.991Z,5.560303
2019-04-14T21:14:05.721Z,5.590515
2019-04-14T21:19:28.480Z,5.600586
2019-04-14T21:24:51.243Z,5.65094
2019-04-14T21:30:13.952Z,5.661011
2019-04-14T21:35:36.698Z,5.630798
2019-04-14T21:41:00.040Z,5.630798
2019-04-14T21:46:23.217Z,5.65094
2019-04-14T21:51:47.089Z,5.620728
2019-04-14T21:57:09.912Z,5.671082
2019-04-14T22:02:33.624Z,5.691223
2019-04-14T22:07:56.367Z,5.661011
2019-04-14T22:13:19.176Z,5.671082
2019-04-14T22:18:41.839Z,5.661011
2019-04-14T22:24:04.506Z,5.701294
2019-04-14T22:29:27.202Z,5.691223
2019-04-14T22:34:49.907Z,5.671082
2019-04-14T22:40:12.606Z,5.630798
2019-04-14T22:45:35.348Z,5.550232
2019-04-14T22:50:58.981Z,5.560303
2019-04-14T22:56:21.641Z,5.52002
2019-04-14T23:01:45.349Z,5.560303
2019-04-14T23:07:08.091Z,5.630798
2019-04-14T23:12:30.822Z,5.65094
2019-04-14T23:17:53.489Z,5.661011
2019-04-14T23:23:16.264Z,5.731506
2019-04-14T23:28:39.736Z,5.78186
2019-04-14T23:34:02.462Z,5.751648
2019-04-14T23:39:25.173Z,5.78186
2019-04-14T23:44:47.890Z,5.802002
2019-04-14T23:50:10.546Z,5.812073
2019-04-14T23:55:33.240Z,5.832214
